Time;durP1;ratioP1;P1;durP2;ratioP2;P2;SDS_P1;SDS_P2;PMS_P1;PMS_P2;Temp;Humidity;BMP_temperature;BMP_pressure;BME280_temperature;BME280_humidity;BME280_pressure;Samples;Min_cycle;Max_cycle;Signal;HPM_P1;HPM_P2
2022/03/08 00:00:49;;;;;;;7.10;4.97;;;3.90;99.90;;;;;;4989571;28;20206;-82
2022/03/08 00:03:15;;;;;;;5.47;4.70;;;3.80;99.90;;;;;;4993096;28;20299;-81
2022/03/08 00:05:42;;;;;;;6.17;5.47;;;3.80;99.90;;;;;;4986085;28;20234;-81
2022/03/08 00:08:09;;;;;;;6.27;4.77;;;3.70;99.90;;;;;;4997074;28;20664;-80
2022/03/08 00:10:37;;;;;;;6.37;4.50;;;3.70;99.90;;;;;;4987306;28;20218;-81
2022/03/08 00:13:04;;;;;;;6.77;5.03;;;3.70;99.90;;;;;;4989223;28;20207;-82
2022/03/08 00:15:30;;;;;;;6.43;5.23;;;3.70;99.90;;;;;;4987387;28;20669;-82
2022/03/08 00:17:57;;;;;;;8.00;5.20;;;3.70;99.90;;;;;;4999336;28;20210;-82
2022/03/08 00:20:25;;;;;;;7.73;5.30;;;3.60;99.90;;;;;;4985400;28;20475;-82
2022/03/08 00:22:52;;;;;;;5.37;4.87;;;3.60;99.90;;;;;;4998932;28;20214;-78
2022/03/08 00:25:19;;;;;;;5.73;5.17;;;3.60;99.90;;;;;;4990912;28;20214;-79
2022/03/08 00:27:47;;;;;;;5.90;5.13;;;3.60;99.90;;;;;;4998298;28;20202;-80
2022/03/08 00:30:16;;;;;;;5.47;4.93;;;3.50;99.90;;;;;;4994018;28;20222;-81
2022/03/08 00:32:43;;;;;;;7.00;5.90;;;3.50;99.90;;;;;;5000441;28;20267;-81
2022/03/08 00:35:10;;;;;;;6.10;5.60;;;3.50;99.90;;;;;;4987209;28;20301;-82
2022/03/08 00:37:37;;;;;;;6.03;5.00;;;3.50;99.90;;;;;;4997385;28;20904;-80
2022/03/08 00:40:05;;;;;;;6.50;5.60;;;3.40;99.90;;;;;;4994398;28;20234;-80
2022/03/08 00:42:32;;;;;;;7.07;5.47;;;3.50;99.90;;;;;;4992058;28;20202;-80
2022/03/08 00:45:00;;;;;;;6.50;5.63;;;3.50;99.90;;;;;;4985926;28;20287;-81
2022/03/08 00:47:27;;;;;;;7.13;5.60;;;3.50;99.90;;;;;;4988971;28;20548;-80
2022/03/08 00:49:53;;;;;;;9.63;6.80;;;3.50;99.90;;;;;;4991512;28;20213;-80
2022/03/08 00:52:20;;;;;;;6.93;5.93;;;3.40;99.90;;;;;;4990243;28;20668;-81
2022/03/08 00:54:47;;;;;;;7.63;5.80;;;3.30;99.90;;;;;;4989354;28;20210;-80
2022/03/08 00:57:13;;;;;;;9.30;6.47;;;3.40;99.90;;;;;;5001552;28;20238;-74
2022/03/08 00:59:40;;;;;;;9.23;6.93;;;3.40;99.90;;;;;;4990501;28;20269;-74
2022/03/08 01:02:08;;;;;;;9.80;7.37;;;3.30;99.90;;;;;;4992200;28;20202;-74
2022/03/08 01:04:35;;;;;;;11.13;7.40;;;3.40;99.90;;;;;;4984636;28;20630;-74
2022/03/08 01:07:01;;;;;;;8.60;6.63;;;3.30;99.90;;;;;;4986439;28;20633;-74
2022/03/08 01:09:28;;;;;;;7.77;6.80;;;3.40;99.90;;;;;;4975500;28;20409;-78
2022/03/08 01:11:56;;;;;;;8.60;6.60;;;3.40;99.90;;;;;;5010854;28;20206;-78
2022/03/08 01:14:23;;;;;;;9.20;6.70;;;3.30;99.90;;;;;;4985957;28;20210;-78
2022/03/08 01:16:50;;;;;;;10.13;7.63;;;3.30;99.90;;;;;;5003359;28;20212;-78
2022/03/08 01:19:18;;;;;;;10.40;7.30;;;3.10;99.90;;;;;;4985994;28;20343;-76
2022/03/08 01:21:45;;;;;;;11.80;7.30;;;3.10;99.90;;;;;;5000978;28;20611;-76
2022/03/08 01:24:12;;;;;;;11.60;7.40;;;3.10;99.90;;;;;;4985914;28;20218;-77
2022/03/08 01:26:39;;;;;;;11.03;7.30;;;3.00;99.90;;;;;;4997980;28;20202;-76
2022/03/08 01:29:06;;;;;;;8.93;6.50;;;2.90;99.90;;;;;;4987372;28;20206;-82
2022/03/08 01:31:33;;;;;;;7.00;5.60;;;2.90;99.90;;;;;;5007872;28;20212;-81
2022/03/08 01:34:01;;;;;;;6.43;5.73;;;2.90;99.90;;;;;;5005032;28;21723;-80
2022/03/08 01:36:29;;;;;;;9.93;6.20;;;2.90;99.90;;;;;;4999834;28;20210;-79
2022/03/08 01:38:56;;;;;;;9.60;6.00;;;2.90;99.90;;;;;;4984927;28;20230;-79
2022/03/08 01:41:23;;;;;;;7.30;5.77;;;2.90;99.90;;;;;;4999094;28;20206;-79
2022/03/08 01:43:50;;;;;;;6.87;5.93;;;2.90;99.90;;;;;;4996769;28;20630;-80
2022/03/08 01:46:17;;;;;;;11.07;6.90;;;2.80;99.90;;;;;;5001136;28;20233;-80
2022/03/08 01:48:44;;;;;;;8.27;6.37;;;2.80;99.90;;;;;;4989624;28;20210;-79
2022/03/08 01:51:11;;;;;;;8.93;5.73;;;2.80;99.90;;;;;;5009381;28;20210;-78
2022/03/08 01:53:40;;;;;;;8.77;6.03;;;2.80;99.90;;;;;;5017143;28;20291;-80
2022/03/08 01:56:08;;;;;;;7.27;6.00;;;2.70;99.90;;;;;;4999092;28;20242;-79
2022/03/08 01:58:35;;;;;;;10.17;6.40;;;2.80;99.90;;;;;;4989843;28;20297;-81
2022/03/08 02:01:06;;;;;;;9.07;5.93;;;2.70;99.90;;;;;;5000490;28;20767;-81
2022/03/08 02:03:34;;;;;;;9.83;6.20;;;2.80;99.90;;;;;;4991214;28;20249;-80
2022/03/08 02:06:05;;;;;;;8.10;5.70;;;2.80;99.90;;;;;;4998031;28;20742;-83
2022/03/08 02:08:32;;;;;;;6.97;5.80;;;2.80;99.90;;;;;;4984472;28;20311;-81
2022/03/08 02:11:00;;;;;;;8.43;6.17;;;2.70;99.90;;;;;;5004059;28;20564;-86
2022/03/08 02:13:28;;;;;;;6.83;5.53;;;2.60;99.90;;;;;;5033946;28;20289;-84
2022/03/08 02:15:55;;;;;;;6.40;5.60;;;2.60;99.90;;;;;;4994944;28;20210;-85
2022/03/08 02:18:22;;;;;;;7.27;5.97;;;2.60;99.90;;;;;;4999499;28;20210;-85
2022/03/08 02:20:50;;;;;;;7.13;6.20;;;2.60;99.90;;;;;;4995800;28;20288;-79
2022/03/08 02:23:18;;;;;;;7.13;5.70;;;2.60;99.90;;;;;;4986586;28;20277;-81
2022/03/08 02:25:44;;;;;;;5.53;5.03;;;2.60;99.90;;;;;;5000017;28;20640;-80
2022/03/08 02:28:11;;;;;;;6.67;5.43;;;2.60;99.90;;;;;;4985785;28;20260;-82
2022/03/08 02:30:38;;;;;;;8.17;5.77;;;2.50;99.90;;;;;;4997062;28;20246;-81
2022/03/08 02:33:05;;;;;;;10.53;5.57;;;2.50;99.90;;;;;;4985664;28;20210;-81
2022/03/08 02:35:32;;;;;;;6.60;5.90;;;2.40;99.90;;;;;;4999087;28;20220;-82
2022/03/08 02:38:01;;;;;;;7.17;6.03;;;2.40;99.90;;;;;;5055362;28;20608;-79
2022/03/08 02:40:31;;;;;;;8.67;5.93;;;2.40;99.90;;;;;;4994868;28;20321;-80
2022/03/08 02:42:59;;;;;;;7.07;5.57;;;2.40;99.90;;;;;;4976151;28;20687;-80
2022/03/08 02:45:26;;;;;;;6.60;5.80;;;2.30;99.90;;;;;;5005227;28;20219;-80
2022/03/08 02:47:53;;;;;;;6.60;5.70;;;2.20;99.90;;;;;;4988972;28;20758;-80
2022/03/08 02:50:21;;;;;;;6.40;5.80;;;2.20;99.90;;;;;;4989783;28;20263;-80
2022/03/08 02:52:51;;;;;;;8.60;5.53;;;2.20;99.90;;;;;;5040189;28;20206;-80
2022/03/08 02:55:20;;;;;;;6.10;5.20;;;2.20;99.90;;;;;;4995498;28;20244;-81
2022/03/08 02:57:48;;;;;;;8.43;5.90;;;2.20;99.90;;;;;;4984949;28;20206;-80
2022/03/08 03:00:16;;;;;;;7.33;5.17;;;2.20;99.90;;;;;;5005264;28;20273;-80
2022/03/08 03:02:43;;;;;;;6.70;5.57;;;2.20;99.90;;;;;;4990843;28;20613;-80
2022/03/08 03:05:11;;;;;;;7.20;6.00;;;2.20;99.90;;;;;;4988650;28;20263;-81
2022/03/08 03:07:39;;;;;;;7.07;5.17;;;2.20;99.90;;;;;;5073141;28;20693;-80
2022/03/08 03:10:06;;;;;;;6.67;5.30;;;2.10;99.90;;;;;;4995427;28;20209;-80
2022/03/08 03:12:33;;;;;;;7.20;5.53;;;2.10;99.90;;;;;;4995224;28;20267;-80
2022/03/08 03:15:02;;;;;;;6.67;5.30;;;2.10;99.90;;;;;;4989119;28;20268;-80
2022/03/08 03:17:28;;;;;;;7.27;5.87;;;2.00;99.90;;;;;;4999917;28;20256;-81
2022/03/08 03:19:55;;;;;;;8.63;5.50;;;2.00;99.90;;;;;;5000432;28;20230;-80
2022/03/08 03:22:22;;;;;;;7.77;5.50;;;2.00;99.90;;;;;;4987155;28;20263;-81
2022/03/08 03:24:48;;;;;;;7.67;5.80;;;2.10;99.90;;;;;;4995960;28;20222;-81
2022/03/08 03:27:15;;;;;;;8.33;5.80;;;2.10;99.90;;;;;;4976364;28;20622;-81
2022/03/08 03:29:42;;;;;;;6.50;5.40;;;2.00;99.90;;;;;;4998419;28;20355;-80
2022/03/08 03:32:10;;;;;;;5.67;5.17;;;2.10;99.90;;;;;;4988259;28;20573;-80
2022/03/08 03:34:37;;;;;;;7.87;5.67;;;2.10;99.90;;;;;;4987276;28;20248;-80
2022/03/08 03:37:04;;;;;;;9.00;5.97;;;2.10;99.90;;;;;;4996192;28;20259;-82
2022/03/08 03:39:31;;;;;;;8.00;5.80;;;2.10;99.90;;;;;;4993750;28;20230;-81
2022/03/08 03:41:57;;;;;;;6.20;5.60;;;2.10;99.90;;;;;;4989869;28;20278;-80
2022/03/08 03:44:24;;;;;;;5.97;5.10;;;2.20;99.90;;;;;;4990314;28;20229;-80
2022/03/08 03:46:51;;;;;;;6.53;5.73;;;2.20;99.90;;;;;;4995821;28;20214;-84
2022/03/08 03:49:19;;;;;;;7.00;5.50;;;2.20;99.90;;;;;;4984037;28;21086;-77
2022/03/08 03:51:47;;;;;;;8.07;5.53;;;2.20;99.90;;;;;;4989860;28;20672;-77
2022/03/08 03:54:13;;;;;;;5.80;4.93;;;2.10;99.90;;;;;;4983735;28;20220;-76
2022/03/08 03:56:40;;;;;;;7.07;5.33;;;2.10;99.90;;;;;;4992946;28;20264;-76
2022/03/08 03:59:07;;;;;;;7.17;5.20;;;2.00;99.90;;;;;;4992109;28;20210;-76
2022/03/08 04:01:33;;;;;;;6.67;5.20;;;2.00;99.90;;;;;;4988589;28;20271;-76
2022/03/08 04:04:00;;;;;;;5.40;4.90;;;2.00;99.90;;;;;;4994939;28;20681;-76
2022/03/08 04:06:28;;;;;;;7.70;5.30;;;2.00;99.90;;;;;;4989277;28;20234;-76
2022/03/08 04:08:55;;;;;;;5.37;4.87;;;1.90;99.90;;;;;;4995606;28;20284;-76
2022/03/08 04:11:21;;;;;;;5.20;4.70;;;1.80;99.90;;;;;;5049665;28;20279;-76
2022/03/08 04:13:48;;;;;;;5.57;5.07;;;1.70;99.90;;;;;;4983526;28;20823;-76
2022/03/08 04:16:15;;;;;;;5.37;4.87;;;1.60;99.90;;;;;;5046407;28;20218;-76
2022/03/08 04:18:44;;;;;;;5.57;4.93;;;1.50;99.90;;;;;;5021020;28;20211;-76
2022/03/08 04:21:10;;;;;;;6.00;5.40;;;1.50;99.90;;;;;;5001399;28;20234;-76
2022/03/08 04:23:38;;;;;;;6.17;4.70;;;1.50;99.90;;;;;;4994200;28;20214;-77
2022/03/08 04:26:05;;;;;;;6.73;5.17;;;1.50;99.90;;;;;;5040072;28;20718;-77
2022/03/08 04:28:32;;;;;;;6.27;5.17;;;1.50;99.90;;;;;;5018125;28;20214;-78
2022/03/08 04:30:59;;;;;;;5.77;4.90;;;1.50;99.90;;;;;;5000087;28;20206;-78
2022/03/08 04:33:25;;;;;;;8.63;5.30;;;1.50;99.90;;;;;;4993342;28;20206;-78
2022/03/08 04:35:52;;;;;;;7.57;5.60;;;1.50;99.90;;;;;;4986888;28;20260;-78
2022/03/08 04:38:19;;;;;;;7.03;5.30;;;1.50;99.90;;;;;;4981984;28;20211;-78
2022/03/08 04:40:46;;;;;;;6.03;5.33;;;1.50;99.90;;;;;;4994482;28;20273;-78
2022/03/08 04:43:14;;;;;;;7.00;5.17;;;1.50;99.90;;;;;;4984789;28;20210;-78
2022/03/08 04:45:40;;;;;;;5.50;5.10;;;1.50;99.90;;;;;;4986613;28;20903;-78
2022/03/08 04:48:07;;;;;;;5.90;5.37;;;1.60;99.90;;;;;;4980775;28;20210;-78
2022/03/08 04:50:34;;;;;;;5.60;5.10;;;1.50;99.90;;;;;;4996076;28;20210;-78
2022/03/08 04:53:00;;;;;;;6.67;5.40;;;1.50;99.90;;;;;;4983064;28;20211;-78
2022/03/08 04:55:27;;;;;;;5.63;5.13;;;1.50;99.90;;;;;;4994608;28;20214;-77
2022/03/08 04:57:55;;;;;;;6.13;5.53;;;1.50;99.90;;;;;;4995364;28;20210;-81
2022/03/08 05:00:22;;;;;;;7.23;6.53;;;1.50;99.90;;;;;;4999448;28;20229;-82
2022/03/08 05:02:48;;;;;;;5.80;5.03;;;1.50;99.90;;;;;;4991448;28;20206;-82
2022/03/08 05:05:15;;;;;;;5.40;4.90;;;1.40;99.90;;;;;;5005268;28;20238;-80
2022/03/08 05:07:43;;;;;;;5.70;5.00;;;1.40;99.90;;;;;;4988090;28;20214;-81
2022/03/08 05:10:12;;;;;;;6.70;5.47;;;1.30;99.90;;;;;;4996831;28;20267;-81
2022/03/08 05:12:39;;;;;;;8.87;5.60;;;1.30;99.90;;;;;;4986012;28;20588;-80
2022/03/08 05:15:10;;;;;;;5.87;5.30;;;1.20;99.90;;;;;;5000919;28;20782;-81
2022/03/08 05:17:37;;;;;;;5.27;4.80;;;1.30;99.90;;;;;;4987034;28;20214;-80
2022/03/08 05:20:05;;;;;;;5.63;5.00;;;1.20;99.90;;;;;;4994157;28;20237;-85
2022/03/08 05:22:32;;;;;;;5.17;4.67;;;1.30;99.90;;;;;;4991887;28;20287;-80
2022/03/08 05:24:59;;;;;;;4.80;4.30;;;1.20;99.90;;;;;;5006263;28;20202;-80
2022/03/08 05:27:25;;;;;;;6.20;4.50;;;1.10;99.90;;;;;;4984688;28;20730;-81
2022/03/08 05:29:52;;;;;;;6.03;4.77;;;1.20;99.90;;;;;;5002487;28;20620;-80
2022/03/08 05:32:20;;;;;;;5.17;4.30;;;1.30;99.90;;;;;;4986958;28;20268;-80
2022/03/08 05:34:46;;;;;;;6.30;5.43;;;1.30;99.90;;;;;;4993192;28;20263;-80
2022/03/08 05:37:15;;;;;;;5.43;4.47;;;1.40;99.90;;;;;;4987217;28;20244;-79
2022/03/08 05:39:42;;;;;;;5.67;4.70;;;1.30;99.90;;;;;;5002545;28;20210;-77
2022/03/08 05:42:08;;;;;;;5.03;4.53;;;1.30;99.90;;;;;;4986415;28;20241;-78
2022/03/08 05:44:36;;;;;;;4.87;4.47;;;1.20;99.90;;;;;;4992765;28;20267;-77
2022/03/08 05:47:03;;;;;;;5.20;4.70;;;1.20;99.90;;;;;;4985779;28;20213;-78
2022/03/08 05:49:31;;;;;;;5.53;4.40;;;1.10;99.90;;;;;;4996695;28;20252;-78
2022/03/08 05:51:58;;;;;;;5.63;4.53;;;1.20;99.90;;;;;;4984180;28;20202;-77
2022/03/08 05:54:25;;;;;;;5.03;4.53;;;1.10;99.90;;;;;;4993928;28;20210;-77
2022/03/08 05:56:51;;;;;;;6.10;4.90;;;1.20;99.90;;;;;;4984871;28;20292;-77
2022/03/08 05:59:18;;;;;;;5.77;5.10;;;1.20;99.90;;;;;;4992503;28;20657;-79
2022/03/08 06:01:45;;;;;;;7.77;4.93;;;1.20;99.90;;;;;;4990179;28;20230;-79
2022/03/08 06:04:11;;;;;;;5.40;4.90;;;1.20;99.90;;;;;;4999075;28;20283;-79
2022/03/08 06:06:39;;;;;;;6.43;4.80;;;1.20;99.90;;;;;;4985036;28;20234;-79
2022/03/08 06:09:06;;;;;;;5.33;4.80;;;1.20;99.90;;;;;;4995818;28;20271;-79
2022/03/08 06:11:33;;;;;;;4.97;4.57;;;1.20;99.90;;;;;;5039039;28;20202;-79
2022/03/08 06:13:59;;;;;;;5.73;4.97;;;1.10;99.90;;;;;;5002535;28;20207;-79
2022/03/08 06:16:26;;;;;;;6.53;4.73;;;1.10;99.90;;;;;;5073916;28;20692;-80
2022/03/08 06:18:56;;;;;;;5.90;4.70;;;1.10;99.90;;;;;;4994741;28;20221;-79
2022/03/08 06:21:22;;;;;;;5.13;4.63;;;1.10;99.90;;;;;;4985003;28;20275;-79
2022/03/08 06:23:51;;;;;;;5.57;4.57;;;1.10;99.90;;;;;;5007759;28;20206;-78
2022/03/08 06:26:17;;;;;;;6.93;4.67;;;1.20;99.90;;;;;;5003259;28;20270;-78
2022/03/08 06:28:44;;;;;;;5.00;4.50;;;1.20;99.90;;;;;;5001128;28;20635;-78
2022/03/08 06:31:11;;;;;;;6.27;4.20;;;1.20;99.90;;;;;;5075557;28;20272;-78
2022/03/08 06:33:37;;;;;;;4.83;4.33;;;1.30;99.90;;;;;;4999329;28;20211;-78
2022/03/08 06:36:04;;;;;;;5.73;5.03;;;1.30;99.90;;;;;;4990745;28;20373;-79
2022/03/08 06:38:31;;;;;;;5.07;4.67;;;1.30;99.90;;;;;;4990330;28;20209;-78
2022/03/08 06:40:59;;;;;;;5.30;4.70;;;1.40;99.90;;;;;;5041974;28;20238;-78
2022/03/08 06:43:26;;;;;;;5.87;5.10;;;1.40;99.90;;;;;;5004299;28;20369;-82
2022/03/08 06:45:53;;;;;;;7.53;6.27;;;1.50;99.90;;;;;;5001422;28;20617;-83
2022/03/08 06:48:19;;;;;;;6.20;5.57;;;1.40;99.90;;;;;;4999823;28;20216;-82
2022/03/08 06:50:46;;;;;;;6.10;4.90;;;1.50;99.90;;;;;;5071890;28;20911;-83
2022/03/08 06:53:13;;;;;;;5.87;5.37;;;1.40;99.90;;;;;;5008181;28;20226;-81
2022/03/08 06:55:40;;;;;;;5.50;5.00;;;1.50;99.90;;;;;;4990372;28;20237;-82
2022/03/08 06:58:08;;;;;;;5.30;4.57;;;1.60;99.90;;;;;;5000092;28;20214;-82
2022/03/08 07:00:34;;;;;;;6.17;5.27;;;1.80;99.90;;;;;;5065410;28;20284;-82
2022/03/08 07:03:01;;;;;;;5.50;5.00;;;2.00;99.90;;;;;;5017316;28;20260;-82
2022/03/08 07:05:29;;;;;;;6.07;5.10;;;2.20;99.90;;;;;;4994262;28;20230;-82
2022/03/08 07:07:56;;;;;;;7.27;5.17;;;2.30;99.90;;;;;;4986910;28;20279;-82
2022/03/08 07:10:22;;;;;;;6.10;5.17;;;2.30;99.90;;;;;;5013977;28;20213;-84
2022/03/08 07:12:49;;;;;;;6.47;5.40;;;2.30;99.90;;;;;;5000768;28;20636;-84
2022/03/08 07:15:17;;;;;;;5.57;5.07;;;2.30;99.90;;;;;;4991529;28;20214;-83
2022/03/08 07:17:45;;;;;;;5.67;4.77;;;2.40;99.90;;;;;;5000011;28;20610;-84
2022/03/08 07:20:13;;;;;;;5.93;5.20;;;2.30;99.90;;;;;;5027454;28;20218;-83
2022/03/08 07:22:40;;;;;;;8.10;5.30;;;2.30;99.90;;;;;;4978810;28;20266;-82
2022/03/08 07:25:09;;;;;;;5.80;5.03;;;2.20;99.90;;;;;;4992254;28;20214;-84
2022/03/08 07:27:36;;;;;;;5.50;4.93;;;2.20;99.90;;;;;;4979714;28;20207;-83
2022/03/08 07:30:05;;;;;;;5.30;4.80;;;2.30;99.90;;;;;;4990872;28;20255;-84
2022/03/08 07:32:33;;;;;;;5.23;4.77;;;2.50;99.90;;;;;;4980453;28;20798;-85
2022/03/08 07:35:00;;;;;;;5.47;4.70;;;2.60;99.90;;;;;;4989248;28;20649;-83
2022/03/08 07:37:27;;;;;;;5.43;4.93;;;2.50;99.90;;;;;;4983558;28;20219;-83
2022/03/08 07:39:55;;;;;;;5.53;4.93;;;2.70;99.90;;;;;;4987089;28;20619;-83
2022/03/08 07:42:21;;;;;;;8.17;5.37;;;2.70;99.90;;;;;;4988348;28;20229;-82
2022/03/08 07:44:48;;;;;;;8.77;7.07;;;2.80;99.90;;;;;;4988539;28;20210;-84
2022/03/08 07:47:15;;;;;;;7.87;6.87;;;3.00;99.90;;;;;;4984812;28;20211;-84
2022/03/08 07:49:43;;;;;;;9.90;7.83;;;3.10;99.90;;;;;;4990353;28;20669;-84
2022/03/08 07:52:09;;;;;;;10.57;8.00;;;3.30;99.90;;;;;;4983168;28;20213;-85
2022/03/08 07:54:36;;;;;;;8.23;6.57;;;3.40;99.90;;;;;;4998806;28;20323;-83
2022/03/08 07:57:03;;;;;;;9.27;6.13;;;3.50;99.90;;;;;;4982367;28;20266;-84
2022/03/08 07:59:30;;;;;;;6.70;5.03;;;3.60;99.90;;;;;;4998748;28;20214;-83
2022/03/08 08:01:57;;;;;;;4.80;4.40;;;3.70;99.90;;;;;;4984670;28;20708;-83
2022/03/08 08:04:24;;;;;;;6.00;4.07;;;3.80;99.90;;;;;;4987404;28;20215;-82
2022/03/08 08:06:52;;;;;;;5.23;4.00;;;3.90;99.90;;;;;;4986442;28;20217;-83
2022/03/08 08:09:19;;;;;;;5.57;4.13;;;3.90;99.90;;;;;;4987476;28;20277;-81
2022/03/08 08:11:45;;;;;;;4.60;4.20;;;4.10;99.90;;;;;;4994174;28;20283;-83
2022/03/08 08:14:12;;;;;;;5.63;4.17;;;4.10;99.90;;;;;;4983831;28;20210;-84
2022/03/08 08:16:39;;;;;;;4.93;3.90;;;4.20;99.90;;;;;;4991209;28;20210;-84
2022/03/08 08:19:05;;;;;;;4.13;3.73;;;4.30;99.90;;;;;;4984275;28;20264;-78
2022/03/08 08:21:32;;;;;;;3.93;3.60;;;4.40;99.90;;;;;;5007197;28;20241;-85
2022/03/08 08:24:00;;;;;;;4.67;4.20;;;4.50;99.90;;;;;;4987615;28;20267;-84
2022/03/08 08:26:28;;;;;;;4.43;4.07;;;4.50;99.90;;;;;;5002714;28;20240;-87
2022/03/08 08:28:54;;;;;;;4.03;3.67;;;4.60;99.90;;;;;;4993981;28;20272;-84
2022/03/08 08:31:23;;;;;;;4.53;4.13;;;4.70;99.90;;;;;;5012240;28;20210;-85
2022/03/08 08:33:49;;;;;;;3.67;3.37;;;4.70;99.90;;;;;;5002786;28;20222;-85
2022/03/08 08:36:16;;;;;;;3.90;3.27;;;4.80;99.90;;;;;;5015464;28;20206;-86
2022/03/08 08:38:43;;;;;;;4.00;3.50;;;4.90;99.90;;;;;;5009446;28;20668;-85
2022/03/08 08:41:11;;;;;;;4.77;3.73;;;5.00;99.90;;;;;;5004293;28;20234;-86
2022/03/08 08:43:38;;;;;;;4.30;4.00;;;5.10;99.90;;;;;;4993610;28;20256;-86
2022/03/08 08:46:04;;;;;;;3.90;3.60;;;5.20;99.90;;;;;;5001052;28;20268;-86
2022/03/08 08:48:31;;;;;;;3.83;3.53;;;5.20;99.90;;;;;;4988435;28;20264;-85
2022/03/08 08:50:58;;;;;;;6.20;3.60;;;5.30;99.90;;;;;;5019586;28;20268;-85
2022/03/08 08:53:24;;;;;;;4.37;3.27;;;5.40;99.90;;;;;;4979673;28;20221;-84
2022/03/08 08:55:51;;;;;;;3.70;3.40;;;5.40;99.90;;;;;;5007241;28;20231;-84
2022/03/08 08:58:19;;;;;;;4.13;3.63;;;5.60;99.90;;;;;;4981016;28;20206;-84
2022/03/08 09:00:46;;;;;;;3.50;3.20;;;5.70;99.90;;;;;;5004735;28;20259;-85
2022/03/08 09:03:16;;;;;;;4.20;3.40;;;5.80;99.90;;;;;;4992631;28;20209;-85
2022/03/08 09:05:43;;;;;;;3.53;3.23;;;5.90;99.90;;;;;;5007455;28;20230;-85
2022/03/08 09:08:14;;;;;;;3.37;3.10;;;5.90;99.90;;;;;;5079564;28;20301;-85
2022/03/08 09:10:41;;;;;;;5.83;3.50;;;6.00;99.90;;;;;;5013953;28;20203;-85
2022/03/08 09:13:08;;;;;;;3.57;3.27;;;6.10;99.90;;;;;;4989604;28;20222;-84
2022/03/08 09:15:36;;;;;;;3.23;3.03;;;6.20;99.90;;;;;;5001670;28;20213;-85
2022/03/08 09:18:05;;;;;;;3.67;3.37;;;6.30;99.90;;;;;;4995611;28;20213;-83
2022/03/08 09:20:32;;;;;;;3.97;3.40;;;6.30;99.90;;;;;;5000899;28;20229;-85
2022/03/08 09:22:59;;;;;;;3.37;3.07;;;6.40;99.90;;;;;;5010661;28;20250;-85
2022/03/08 09:25:26;;;;;;;3.87;3.23;;;6.60;99.90;;;;;;4991401;28;20279;-85
2022/03/08 09:27:53;;;;;;;5.47;3.63;;;6.60;99.90;;;;;;5006326;28;20679;-85
2022/03/08 09:30:20;;;;;;;3.47;2.93;;;6.70;99.90;;;;;;4991483;28;20210;-84
2022/03/08 09:32:48;;;;;;;3.13;2.83;;;6.80;99.90;;;;;;5004305;28;20205;-86
2022/03/08 09:35:15;;;;;;;3.30;3.00;;;6.90;99.90;;;;;;5015653;28;20214;-84
2022/03/08 09:37:42;;;;;;;3.37;3.07;;;7.00;99.90;;;;;;4990667;28;20264;-84
2022/03/08 09:40:10;;;;;;;3.53;3.20;;;7.00;99.90;;;;;;4987477;28;20343;-85
2022/03/08 09:42:37;;;;;;;3.50;3.20;;;7.10;99.90;;;;;;4995851;28;20242;-84
2022/03/08 09:45:04;;;;;;;3.93;3.10;;;7.10;99.90;;;;;;4992248;28;20215;-84
2022/03/08 09:47:31;;;;;;;4.23;3.30;;;7.10;99.90;;;;;;4998283;28;20839;-85
2022/03/08 09:49:59;;;;;;;3.70;3.27;;;7.20;99.90;;;;;;4996798;28;20217;-84
2022/03/08 09:52:26;;;;;;;3.87;3.07;;;7.30;99.90;;;;;;5025986;28;20235;-84
2022/03/08 09:54:52;;;;;;;4.20;3.70;;;7.50;99.90;;;;;;5065512;28;20867;-84
2022/03/08 09:57:22;;;;;;;4.53;3.43;;;7.40;99.90;;;;;;5001410;28;20636;-84
2022/03/08 09:59:49;;;;;;;3.87;3.57;;;7.50;99.90;;;;;;4997167;28;20268;-83
2022/03/08 10:02:17;;;;;;;3.63;3.30;;;7.70;99.90;;;;;;5004593;28;20238;-84
2022/03/08 10:04:43;;;;;;;4.40;3.17;;;7.80;99.90;;;;;;4993417;28;20317;-85
2022/03/08 10:07:14;;;;;;;4.27;3.20;;;7.90;99.90;;;;;;5005849;28;20215;-84
2022/03/08 10:09:54;;;;;;;4.43;3.10;;;8.00;99.90;;;;;;5080752;28;20191;-84
2022/03/08 10:12:21;;;;;;;4.20;3.37;;;8.10;99.90;;;;;;4999228;28;20209;-85
2022/03/08 10:14:48;;;;;;;3.13;2.87;;;8.20;99.90;;;;;;5049713;28;20210;-85
2022/03/08 10:17:33;;;;;;;10.93;3.60;;;8.20;99.90;;;;;;5002504;28;20582;-84
2022/03/08 10:20:00;;;;;;;3.30;3.00;;;8.40;99.90;;;;;;4971048;28;20284;-85
2022/03/08 10:22:30;;;;;;;3.20;2.90;;;8.40;99.90;;;;;;5002951;28;20245;-84
2022/03/08 10:25:11;;;;;;;3.20;2.90;;;8.60;99.90;;;;;;4997797;28;20210;-86
2022/03/08 10:27:41;;;;;;;7.00;3.10;;;8.60;99.90;;;;;;5002141;28;20202;-87
2022/03/08 10:30:13;;;;;;;3.27;2.97;;;8.70;99.90;;;;;;4980509;28;22649;-85
2022/03/08 10:32:40;;;;;;;3.33;3.03;;;8.80;99.90;;;;;;5001651;28;20650;-86
2022/03/08 10:35:09;;;;;;;2.97;2.77;;;8.80;99.90;;;;;;5078942;28;20232;-86
2022/03/08 10:37:39;;;;;;;3.70;2.83;;;8.80;99.90;;;;;;4996506;28;20206;-85
2022/03/08 10:40:08;;;;;;;3.63;2.90;;;9.00;99.90;;;;;;5074695;28;20581;-85
2022/03/08 10:42:37;;;;;;;4.47;3.27;;;9.00;99.90;;;;;;5003851;28;20242;-84
2022/03/08 10:45:07;;;;;;;2.80;2.60;;;9.00;99.90;;;;;;4999512;28;20316;-85
2022/03/08 10:47:41;;;;;;;3.77;2.67;;;9.20;99.90;;;;;;5007925;28;20210;-86
2022/03/08 10:50:10;;;;;;;3.00;2.80;;;9.40;99.90;;;;;;4980735;28;20593;-86
2022/03/08 10:52:39;;;;;;;6.73;3.77;;;9.50;99.90;;;;;;5000347;28;20256;-85
2022/03/08 10:55:11;;;;;;;2.80;2.60;;;9.70;99.90;;;;;;4993577;28;20206;-85
2022/03/08 10:57:39;;;;;;;3.03;2.60;;;9.70;99.90;;;;;;5007803;28;20218;-86
2022/03/08 11:00:11;;;;;;;2.33;2.13;;;9.80;99.70;;;;;;5003299;28;20207;-86
2022/03/08 11:02:49;;;;;;;3.37;3.07;;;10.00;99.70;;;;;;5019988;28;20290;-87
2022/03/08 11:05:17;;;;;;;4.50;2.60;;;10.10;99.20;;;;;;5070539;28;20284;-86
2022/03/08 11:07:46;;;;;;;3.27;2.20;;;10.20;99.70;;;;;;5011085;28;20805;-85
2022/03/08 11:10:13;;;;;;;3.50;2.60;;;10.30;99.40;;;;;;4993684;28;20210;-85
2022/03/08 11:12:41;;;;;;;4.60;2.50;;;10.40;99.30;;;;;;4988984;28;20218;-85
2022/03/08 11:15:11;;;;;;;3.47;2.57;;;10.40;99.20;;;;;;5001410;28;20203;-85
2022/03/08 11:17:39;;;;;;;2.80;2.20;;;10.70;99.10;;;;;;5001471;28;20271;-85
2022/03/08 11:20:08;;;;;;;2.60;2.40;;;10.70;99.20;;;;;;4999729;28;20574;-85
2022/03/08 11:22:36;;;;;;;3.30;2.43;;;10.70;98.80;;;;;;4999791;28;20268;-85
2022/03/08 11:25:05;;;;;;;2.80;2.60;;;10.60;98.50;;;;;;4991885;28;20685;-85
2022/03/08 11:27:33;;;;;;;2.87;2.67;;;10.60;98.50;;;;;;4993429;28;20617;-85
2022/03/08 11:30:01;;;;;;;4.03;2.60;;;10.60;98.20;;;;;;5043327;28;20260;-85
2022/03/08 11:32:34;;;;;;;3.60;2.40;;;10.60;98.10;;;;;;5031746;28;20207;-84
2022/03/08 11:35:08;;;;;;;2.70;2.50;;;10.60;98.40;;;;;;4990697;28;20263;-85
2022/03/08 11:37:38;;;;;;;2.40;2.30;;;10.70;98.50;;;;;;4986851;28;20232;-82
2022/03/08 11:40:08;;;;;;;2.60;2.40;;;10.80;98.50;;;;;;5001824;28;20620;-85
2022/03/08 11:42:37;;;;;;;4.27;2.80;;;10.80;98.50;;;;;;4998290;28;20236;-82
2022/03/08 11:45:07;;;;;;;2.70;2.50;;;10.90;98.20;;;;;;4995637;28;20684;-82
2022/03/08 11:47:38;;;;;;;2.57;2.00;;;11.00;98.10;;;;;;5000661;28;20671;-82
2022/03/08 11:50:06;;;;;;;2.20;2.07;;;11.00;97.60;;;;;;5002550;28;20585;-82
2022/03/08 11:52:36;;;;;;;2.50;2.30;;;11.00;97.30;;;;;;4985860;28;20210;-83
2022/03/08 11:55:07;;;;;;;7.20;1.90;;;11.20;97.40;;;;;;5026641;28;20199;-83
2022/03/08 11:58:07;;;;;;;2.03;1.70;;;11.30;97.30;;;;;;5047562;28;20230;-82
2022/03/08 12:00:40;;;;;;;1.90;1.80;;;11.40;96.80;;;;;;4993369;28;20206;-82
2022/03/08 12:03:10;;;;;;;1.97;1.87;;;11.50;96.90;;;;;;4990178;28;20245;-83
2022/03/08 12:05:49;;;;;;;2.70;1.77;;;11.60;96.70;;;;;;5007248;28;20314;-82
2022/03/08 12:08:43;;;;;;;2.30;1.97;;;11.80;96.60;;;;;;5006953;28;20205;-82
2022/03/08 12:11:32;;;;;;;2.40;1.90;;;11.80;95.90;;;;;;5004130;28;20279;-83
2022/03/08 12:14:02;;;;;;;2.23;2.03;;;11.90;95.80;;;;;;5008403;28;20203;-82
2022/03/08 12:16:29;;;;;;;3.17;2.07;;;12.00;95.70;;;;;;4995623;28;20268;-82
2022/03/08 12:18:58;;;;;;;2.87;2.00;;;12.10;95.90;;;;;;5004495;28;20218;-82
2022/03/08 12:21:44;;;;;;;2.00;1.90;;;12.20;95.00;;;;;;4995867;28;20817;-82
2022/03/08 12:24:14;;;;;;;2.00;1.90;;;12.40;95.10;;;;;;5001859;28;20288;-82
2022/03/08 12:26:52;;;;;;;3.23;2.10;;;12.50;95.10;;;;;;4993484;28;20656;-82
2022/03/08 12:29:22;;;;;;;1.97;1.80;;;12.50;94.70;;;;;;5011420;28;20206;-83
2022/03/08 12:32:11;;;;;;;1.67;1.57;;;12.60;94.20;;;;;;4993718;28;20452;-84
2022/03/08 12:34:42;;;;;;;2.17;1.50;;;12.60;94.80;;;;;;5001103;28;20256;-81
2022/03/08 12:37:11;;;;;;;1.97;1.77;;;12.90;94.50;;;;;;4998248;28;20213;-82
2022/03/08 12:39:49;;;;;;;2.10;1.87;;;13.10;94.10;;;;;;5003366;28;20206;-82
2022/03/08 12:42:30;;;;;;;3.00;2.00;;;13.20;94.00;;;;;;4992636;28;20218;-82
2022/03/08 12:45:04;;;;;;;2.10;1.97;;;13.20;93.50;;;;;;5004475;28;20283;-82
2022/03/08 12:47:34;;;;;;;4.23;2.07;;;13.10;93.60;;;;;;4997927;28;20201;-83
2022/03/08 12:50:04;;;;;;;2.23;1.73;;;13.00;92.90;;;;;;5005338;28;20234;-82
2022/03/08 12:52:37;;;;;;;2.80;2.10;;;12.90;93.20;;;;;;4993209;28;20543;-81
2022/03/08 12:55:06;;;;;;;2.00;1.90;;;12.90;92.90;;;;;;4996946;28;20214;-82
2022/03/08 12:57:37;;;;;;;2.43;2.23;;;13.00;93.00;;;;;;4993586;28;20315;-83
2022/03/08 13:00:05;;;;;;;2.10;1.90;;;13.20;92.90;;;;;;4999937;28;20623;-82